createdAt,value
2022-12-16T00:00:49.015Z,39.9
2022-12-16T00:01:56.336Z,39.2
2022-12-16T00:03:03.439Z,38.4
2022-12-16T00:04:10.217Z,40
2022-12-16T00:05:17.426Z,40.2
2022-12-16T00:06:24.622Z,39.3
2022-12-16T00:07:31.758Z,38.7
2022-12-16T00:08:38.886Z,39.8
2022-12-16T00:09:46.008Z,39.7
2022-12-16T00:10:53.145Z,39.3
2022-12-16T00:12:00.433Z,39.6
2022-12-16T00:13:10.575Z,36.7
2022-12-16T00:14:14.530Z,38.9
2022-12-16T00:15:21.566Z,38.4
2022-12-16T00:16:28.833Z,39.9
2022-12-16T00:17:35.853Z,40
2022-12-16T00:18:43.017Z,38.5
2022-12-16T00:19:50.146Z,39.1
2022-12-16T00:20:57.398Z,36.9
2022-12-16T00:22:04.446Z,38.3
2022-12-16T00:23:11.693Z,38.3
2022-12-16T00:24:18.580Z,38.3
2022-12-16T00:25:25.799Z,36.7
2022-12-16T00:26:32.861Z,39.1
2022-12-16T00:27:40.094Z,37.7
2022-12-16T00:28:47.145Z,38.5
2022-12-16T00:29:54.330Z,35.6
2022-12-16T00:31:01.491Z,37
2022-12-16T00:32:08.569Z,37.5
2022-12-16T00:33:15.706Z,36.9
2022-12-16T00:34:22.798Z,36.3
2022-12-16T00:35:29.818Z,37.5
2022-12-16T00:36:36.987Z,36.6
2022-12-16T00:37:44.119Z,35.3
2022-12-16T00:38:51.321Z,36.5
2022-12-16T00:39:58.515Z,35.4
2022-12-16T00:41:05.662Z,37.2
2022-12-16T00:42:12.606Z,35.4
2022-12-16T00:43:19.892Z,37.2
2022-12-16T00:44:26.835Z,36.8
2022-12-16T00:45:33.994Z,37.1
2022-12-16T00:46:41.188Z,35.9
2022-12-16T00:47:48.363Z,36.5
2022-12-16T00:48:55.417Z,36.8
2022-12-16T00:50:02.621Z,36.3
2022-12-16T00:51:10.306Z,35.3
2022-12-16T00:52:17.362Z,35
2022-12-16T00:53:24.624Z,34.6
2022-12-16T00:54:31.618Z,33.7
2022-12-16T00:55:38.791Z,34.2
2022-12-16T00:56:45.898Z,34.5
2022-12-16T00:57:53.065Z,32.3
2022-12-16T00:59:00.233Z,34.8
2022-12-16T01:00:07.606Z,33.7
2022-12-16T01:01:15.028Z,33.4
2022-12-16T01:02:22.163Z,33
2022-12-16T01:03:29.215Z,30.8
2022-12-16T01:04:36.325Z,32.8
2022-12-16T01:05:43.446Z,32.7
2022-12-16T01:06:50.818Z,33.5
2022-12-16T01:07:57.721Z,33.5
2022-12-16T01:09:05.097Z,32.2
2022-12-16T01:10:12.441Z,32.3
2022-12-16T01:11:19.629Z,31.3
2022-12-16T01:12:26.754Z,31.5
2022-12-16T01:13:34.518Z,31.9
2022-12-16T01:14:41.060Z,32.4
2022-12-16T01:15:48.238Z,31
2022-12-16T01:16:55.406Z,32.5
2022-12-16T01:18:02.523Z,32.7
2022-12-16T01:19:09.681Z,31.4
2022-12-16T01:20:16.689Z,31.6
2022-12-16T01:21:23.871Z,32.1
2022-12-16T01:22:31.054Z,31.1
2022-12-16T01:23:38.142Z,31.5
2022-12-16T01:24:45.282Z,31.5
2022-12-16T01:25:52.557Z,31.4
2022-12-16T01:26:59.618Z,31.6
2022-12-16T01:28:06.701Z,30.4
2022-12-16T01:29:13.791Z,31
2022-12-16T01:30:20.982Z,30.3
2022-12-16T01:31:28.163Z,30.5
2022-12-16T01:32:35.486Z,29.6
2022-12-16T01:33:42.430Z,31
2022-12-16T01:34:52.456Z,29.8
2022-12-16T01:35:56.661Z,30.3
2022-12-16T01:37:03.738Z,30.6
2022-12-16T01:38:11.025Z,30.2
2022-12-16T01:39:18.093Z,30.4
2022-12-16T01:40:25.134Z,29.5
2022-12-16T01:41:32.229Z,29.1
2022-12-16T01:42:39.429Z,29.1
2022-12-16T01:43:46.794Z,29.5
2022-12-16T01:44:54.967Z,30
2022-12-16T01:46:00.932Z,29.4
2022-12-16T01:47:15.503Z,30.7
2022-12-16T01:48:22.674Z,29.5
2022-12-16T01:49:34.874Z,29.1
2022-12-16T01:50:43.022Z,29.5
2022-12-16T01:51:52.597Z,30.1
2022-12-16T01:52:57.370Z,28.5
2022-12-16T01:54:04.530Z,29.4
2022-12-16T01:55:11.755Z,28.9
2022-12-16T01:56:18.638Z,28.1
2022-12-16T01:57:25.813Z,29
2022-12-16T01:58:36.241Z,30.4
2022-12-16T01:59:43.226Z,29.3
2022-12-16T02:00:50.311Z,30.3
2022-12-16T02:01:57.864Z,29.8
2022-12-16T02:03:04.686Z,29.8
2022-12-16T02:04:11.555Z,28.9
2022-12-16T02:05:18.997Z,30.3
2022-12-16T02:06:26.091Z,29.5
2022-12-16T02:07:32.987Z,29.7
2022-12-16T02:08:40.060Z,30
2022-12-16T02:09:47.235Z,30.1
2022-12-16T02:10:55.423Z,30.7
2022-12-16T02:12:10.703Z,30.4
2022-12-16T02:13:22.770Z,28.9
2022-12-16T02:14:35.107Z,30.7
2022-12-16T02:15:49.779Z,29.8
2022-12-16T02:17:07.322Z,29.7
2022-12-16T02:18:19.270Z,28.5
2022-12-16T02:19:26.562Z,30.4
2022-12-16T02:20:41.676Z,30.2
2022-12-16T02:21:53.998Z,29.4
2022-12-16T02:23:11.355Z,30.2
2022-12-16T02:24:21.676Z,30.4
2022-12-16T02:25:34.067Z,29.8
2022-12-16T02:26:44.295Z,30.5
2022-12-16T02:27:56.526Z,30.9
2022-12-16T02:29:06.231Z,30.2
2022-12-16T02:30:23.456Z,29.2
2022-12-16T02:31:38.722Z,31.1
2022-12-16T02:32:48.970Z,29
2022-12-16T02:34:06.267Z,29.4
2022-12-16T02:35:13.330Z,29.9
2022-12-16T02:36:30.668Z,30.1
2022-12-16T02:37:48.142Z,29.8
2022-12-16T02:39:02.762Z,30.4
2022-12-16T02:40:14.854Z,30
2022-12-16T02:41:24.574Z,29.8
2022-12-16T02:42:41.871Z,30.3
2022-12-16T02:43:49.138Z,29.1
2022-12-16T02:45:01.723Z,28.9
2022-12-16T02:46:14.444Z,30
2022-12-16T02:47:21.554Z,29.5
2022-12-16T02:48:28.685Z,29.6
2022-12-16T02:49:35.984Z,31
2022-12-16T02:50:48.466Z,29.2
2022-12-16T02:51:55.808Z,29.6
2022-12-16T02:53:02.967Z,30.7
2022-12-16T02:54:09.963Z,29.9
2022-12-16T02:55:17.017Z,29.5
2022-12-16T02:56:24.162Z,29.8
2022-12-16T02:57:36.602Z,28
2022-12-16T02:58:48.609Z,28.7
2022-12-16T03:00:00.820Z,30.7
2022-12-16T03:01:11.195Z,31
2022-12-16T03:02:23.868Z,30.3
2022-12-16T03:03:36.443Z,29
2022-12-16T03:04:51.140Z,29.6
2022-12-16T03:06:03.532Z,29.7
2022-12-16T03:07:10.512Z,29.7
2022-12-16T03:08:17.522Z,28.7
2022-12-16T03:09:27.638Z,31.3
2022-12-16T03:10:34.798Z,29.2
2022-12-16T03:11:41.970Z,31.2
2022-12-16T03:12:49.410Z,29.1
2022-12-16T03:13:56.417Z,30.1
2022-12-16T03:15:03.397Z,30.9
2022-12-16T03:16:10.609Z,30.4
2022-12-16T03:17:17.538Z,30.9
2022-12-16T03:18:24.754Z,30.9
2022-12-16T03:19:31.977Z,30.3
2022-12-16T03:20:39.033Z,30.6
2022-12-16T03:21:49.226Z,31.3
2022-12-16T03:23:04.582Z,30.7
2022-12-16T03:24:14.089Z,29.5
2022-12-16T03:25:21.267Z,30.7
2022-12-16T03:26:28.554Z,31.5
2022-12-16T03:27:43.578Z,32.5
2022-12-16T03:29:01.390Z,28.3
2022-12-16T03:30:08.569Z,30.6
2022-12-16T03:31:20.804Z,31.6
2022-12-16T03:32:27.909Z,30.7
2022-12-16T03:33:40.141Z,29.8
2022-12-16T03:34:57.885Z,31.1
2022-12-16T03:36:05.170Z,31.3
2022-12-16T03:37:12.125Z,31.7
2022-12-16T03:38:19.501Z,31.5
2022-12-16T03:39:26.445Z,32.4
2022-12-16T03:40:33.555Z,31
2022-12-16T03:41:40.621Z,30.5
2022-12-16T03:42:47.769Z,32.2
2022-12-16T03:43:54.897Z,31.5
2022-12-16T03:45:02.210Z,32.1
2022-12-16T03:46:09.824Z,31.5
2022-12-16T03:47:21.635Z,31.7
2022-12-16T03:48:23.851Z,31.2
2022-12-16T03:49:31.066Z,32.2
2022-12-16T03:50:38.340Z,31.6
2022-12-16T03:51:45.374Z,33
2022-12-16T03:52:52.457Z,33.9
2022-12-16T03:53:59.570Z,31.2
2022-12-16T03:55:06.853Z,31.7
2022-12-16T03:56:13.818Z,32.7
2022-12-16T03:57:20.956Z,32.6
2022-12-16T03:58:28.233Z,33.4
2022-12-16T03:59:35.318Z,32.1
2022-12-16T04:00:42.389Z,31.3
2022-12-16T04:01:50.622Z,33.7
2022-12-16T04:02:57.963Z,31.9
2022-12-16T04:04:05.022Z,32.4
2022-12-16T04:05:11.991Z,32.5
2022-12-16T04:06:19.049Z,32.6
2022-12-16T04:07:26.215Z,32.6
2022-12-16T04:08:33.328Z,32.3
2022-12-16T04:09:40.487Z,33.4
2022-12-16T04:10:47.636Z,31.7
2022-12-16T04:11:59.809Z,33
2022-12-16T04:13:12.101Z,32.1
2022-12-16T04:14:24.258Z,31.7
2022-12-16T04:15:36.689Z,32.2
2022-12-16T04:16:48.706Z,34.9
2022-12-16T04:18:00.872Z,32
2022-12-16T04:19:16.116Z,31.2
2022-12-16T04:20:30.936Z,32.5
2022-12-16T04:21:43.132Z,32.7
2022-12-16T04:22:55.376Z,32.3
2022-12-16T04:24:07.691Z,30.6
2022-12-16T04:25:19.810Z,33.3
2022-12-16T04:26:26.849Z,32.6
2022-12-16T04:27:34.869Z,32.1
2022-12-16T04:28:41.713Z,31.9
2022-12-16T04:29:48.945Z,32.3
2022-12-16T04:31:01.108Z,32.1
2022-12-16T04:32:08.253Z,31.7
2022-12-16T04:33:15.369Z,32.4
2022-12-16T04:34:27.663Z,34.3
2022-12-16T04:35:34.768Z,31.8
2022-12-16T04:36:46.847Z,31.4
2022-12-16T04:37:59.016Z,32.7
2022-12-16T04:39:11.333Z,31.1
2022-12-16T04:40:23.417Z,31.5
2022-12-16T04:41:35.825Z,31.9
2022-12-16T04:42:47.973Z,32.4
2022-12-16T04:44:00.176Z,31.1
2022-12-16T04:45:13.229Z,32.7
2022-12-16T04:46:26.528Z,33.3
2022-12-16T04:47:38.924Z,33.8
2022-12-16T04:48:51.325Z,33.2
2022-12-16T04:50:03.697Z,33.3
2022-12-16T04:51:15.982Z,33.3
2022-12-16T04:52:28.664Z,34.4
2022-12-16T04:53:40.941Z,32.5
2022-12-16T04:54:53.463Z,32.9
2022-12-16T04:56:05.932Z,31.9
2022-12-16T04:57:18.096Z,31.7
2022-12-16T04:58:30.285Z,31.9
2022-12-16T04:59:42.566Z,31.4
2022-12-16T05:00:54.876Z,31.8
2022-12-16T05:02:07.167Z,33.2
2022-12-16T05:03:19.328Z,33
2022-12-16T05:04:31.361Z,33.8
2022-12-16T05:05:43.908Z,33.3
2022-12-16T05:06:56.466Z,33.6
2022-12-16T05:08:08.712Z,33.8
2022-12-16T05:09:20.812Z,32.9
2022-12-16T05:10:33.802Z,33.4
2022-12-16T05:11:45.781Z,31.7
2022-12-16T05:12:58.138Z,32.4
2022-12-16T05:14:10.296Z,32.1
2022-12-16T05:15:22.380Z,33.7
2022-12-16T05:16:34.658Z,33.8
2022-12-16T05:17:46.897Z,33.5
2022-12-16T05:18:59.690Z,39.3
2022-12-16T05:20:11.868Z,43.5
2022-12-16T05:21:23.946Z,47.4
2022-12-16T05:22:36.198Z,47.7
2022-12-16T05:23:48.446Z,46.9
2022-12-16T05:25:00.730Z,47.1
2022-12-16T05:26:13.002Z,45.8
2022-12-16T05:27:25.039Z,43.3
2022-12-16T05:28:37.252Z,44.9
2022-12-16T05:29:49.471Z,43.2
2022-12-16T05:31:01.843Z,38.7
2022-12-16T05:32:13.912Z,38.2
2022-12-16T05:33:26.108Z,39.2
2022-12-16T05:34:38.246Z,39.8
2022-12-16T05:35:50.495Z,38.1
2022-12-16T05:37:02.774Z,38.6
2022-12-16T05:38:15.159Z,38.7
2022-12-16T05:39:27.670Z,36.1
2022-12-16T05:40:40.135Z,35
2022-12-16T05:41:52.130Z,34.8
2022-12-16T05:43:04.379Z,33.1
2022-12-16T05:44:16.574Z,32.7
2022-12-16T05:45:28.767Z,32.6
2022-12-16T05:46:41.134Z,33.9
2022-12-16T05:47:53.222Z,32.3
2022-12-16T05:49:06.392Z,32.9
2022-12-16T05:50:18.826Z,33.2
2022-12-16T05:51:31.038Z,32
2022-12-16T05:52:43.075Z,32.2
2022-12-16T05:53:55.363Z,30.7
2022-12-16T05:55:07.596Z,33.4
2022-12-16T05:56:19.882Z,31.3
2022-12-16T05:57:31.999Z,32.6
2022-12-16T05:58:44.207Z,32.1
2022-12-16T05:59:56.542Z,32.1
2022-12-16T06:01:09.174Z,33
2022-12-16T06:02:22.222Z,30.8
2022-12-16T06:03:34.400Z,30.8
2022-12-16T06:04:46.375Z,29.6
2022-12-16T06:05:58.564Z,30.6
2022-12-16T06:07:10.866Z,31.5
2022-12-16T06:08:23.102Z,31
2022-12-16T06:09:35.134Z,30.9
2022-12-16T06:10:47.382Z,31.6
2022-12-16T06:11:59.629Z,31.4
2022-12-16T06:13:11.914Z,30.9
2022-12-16T06:14:24.126Z,31.2
2022-12-16T06:15:36.303Z,31.7
2022-12-16T06:16:48.579Z,30.3
2022-12-16T06:18:00.731Z,31.8
2022-12-16T06:19:12.991Z,31.1
2022-12-16T06:20:25.109Z,31.8
2022-12-16T06:21:37.515Z,30.4
2022-12-16T06:22:49.618Z,31.1
2022-12-16T06:24:01.810Z,31.4
2022-12-16T06:25:13.938Z,31.7
2022-12-16T06:26:26.242Z,31.4
2022-12-16T06:27:38.785Z,31.4
2022-12-16T06:28:53.711Z,31.1
2022-12-16T06:30:05.961Z,30.5
2022-12-16T06:31:18.176Z,31.5
2022-12-16T06:32:30.530Z,32.1
2022-12-16T06:33:42.612Z,31.2
2022-12-16T06:34:54.870Z,33.1
2022-12-16T06:36:07.062Z,32.8
2022-12-16T06:37:19.191Z,30.9
2022-12-16T06:38:31.501Z,31.1
2022-12-16T06:39:44.490Z,32.2
2022-12-16T06:40:55.929Z,31.9
2022-12-16T06:42:08.214Z,31.2
2022-12-16T06:43:20.294Z,32.2
2022-12-16T06:44:32.539Z,31.6
2022-12-16T06:45:43.271Z,31.6
2022-12-16T06:46:55.470Z,33.1
2022-12-16T06:48:07.719Z,33.9
2022-12-16T06:49:20.069Z,34.3
2022-12-16T06:50:32.257Z,33.1
2022-12-16T06:51:44.402Z,34.2
2022-12-16T06:52:56.650Z,33.6
2022-12-16T06:54:08.800Z,33.8
2022-12-16T06:55:20.958Z,32.5
2022-12-16T06:56:33.242Z,31.7
2022-12-16T06:57:45.594Z,34.3
2022-12-16T06:59:00.338Z,31.9
2022-12-16T07:00:12.470Z,32.9
2022-12-16T07:01:24.911Z,33.9
2022-12-16T07:02:37.400Z,32.5
2022-12-16T07:03:49.798Z,33.7
2022-12-16T07:05:02.270Z,34
2022-12-16T07:06:14.455Z,33
2022-12-16T07:07:26.690Z,33.5
2022-12-16T07:08:38.929Z,33.7
2022-12-16T07:09:51.128Z,34.9
2022-12-16T07:11:15.550Z,34.5
2022-12-16T07:12:15.535Z,32.9
2022-12-16T07:13:27.793Z,33.9
2022-12-16T07:14:40.005Z,31.5
2022-12-16T07:15:52.334Z,33.5
2022-12-16T07:17:04.407Z,33.3
2022-12-16T07:18:16.543Z,32.4
2022-12-16T07:19:28.838Z,32.8
2022-12-16T07:20:41.101Z,31.3
2022-12-16T07:21:53.503Z,31.7
2022-12-16T07:23:12.020Z,32.6
2022-12-16T07:24:18.137Z,31.1
2022-12-16T07:25:30.374Z,32.2
2022-12-16T07:26:43.551Z,34
2022-12-16T07:27:55.926Z,33.4
2022-12-16T07:29:08.068Z,34.8
2022-12-16T07:30:20.190Z,33.2
2022-12-16T07:31:32.867Z,32
2022-12-16T07:32:45.215Z,33
2022-12-16T07:33:57.410Z,31.8
2022-12-16T07:35:09.821Z,32.2
2022-12-16T07:36:22.321Z,32.4
2022-12-16T07:37:34.513Z,31
2022-12-16T07:38:46.690Z,31.5
2022-12-16T07:39:59.142Z,32.3
2022-12-16T07:41:11.732Z,31.3
2022-12-16T07:42:23.846Z,31.1
2022-12-16T07:43:37.367Z,31.5
2022-12-16T07:44:44.325Z,31.9
2022-12-16T07:45:57.279Z,31.8
2022-12-16T07:47:09.919Z,30.6
2022-12-16T07:48:22.441Z,30.9
2022-12-16T07:49:34.578Z,31
2022-12-16T07:50:46.831Z,30.6
2022-12-16T07:51:59.306Z,32
2022-12-16T07:53:11.378Z,34.1
2022-12-16T07:54:24.318Z,37
2022-12-16T07:55:36.670Z,37
2022-12-16T07:56:48.918Z,36
2022-12-16T07:58:01.114Z,35.7
2022-12-16T07:59:13.429Z,35.1
2022-12-16T08:00:25.583Z,34.5
2022-12-16T08:01:37.906Z,36.4
2022-12-16T08:02:50.288Z,35.5
2022-12-16T08:04:02.253Z,48.5
2022-12-16T08:05:14.585Z,58.2
2022-12-16T08:06:26.654Z,69.6
2022-12-16T08:07:38.877Z,66.9
2022-12-16T08:08:51.055Z,59.2
2022-12-16T08:10:03.381Z,45.5
2022-12-16T08:11:15.482Z,47.6
2022-12-16T08:12:27.784Z,58.4
2022-12-16T08:13:40.360Z,54.4
2022-12-16T08:14:52.176Z,47.7
2022-12-16T08:16:04.470Z,41.5
2022-12-16T08:17:16.667Z,43.7
2022-12-16T08:18:28.906Z,45
2022-12-16T08:19:41.278Z,43.9
2022-12-16T08:20:53.317Z,42.3
2022-12-16T08:22:05.555Z,38.9
2022-12-16T08:23:18.389Z,37.2
2022-12-16T08:24:30.412Z,39.9
2022-12-16T08:25:42.755Z,43
2022-12-16T08:26:54.978Z,40.6
2022-12-16T08:28:07.099Z,42.6
2022-12-16T08:29:42.960Z,38.4
2022-12-16T08:30:31.619Z,39.9
2022-12-16T08:31:43.978Z,39.8
2022-12-16T08:32:59.702Z,38.8
2022-12-16T08:34:08.221Z,37.3
2022-12-16T08:35:20.413Z,37.7
2022-12-16T08:36:27.566Z,37.1
2022-12-16T08:37:39.763Z,39.7
2022-12-16T08:38:52.049Z,36.7
2022-12-16T08:40:33.529Z,37
2022-12-16T08:41:16.961Z,36.6
2022-12-16T08:42:29.167Z,36.2
2022-12-16T08:43:41.377Z,34.8
2022-12-16T08:44:53.662Z,35.2
2022-12-16T08:46:05.906Z,35.2
2022-12-16T08:47:19.067Z,36.6
2022-12-16T08:48:31.226Z,39.3
2022-12-16T08:49:43.546Z,39.5
2022-12-16T08:50:55.910Z,38.6
2022-12-16T08:52:08.031Z,38
2022-12-16T08:53:20.125Z,38.3
2022-12-16T08:54:32.414Z,41.6
2022-12-16T08:55:44.598Z,42.4
2022-12-16T08:56:56.855Z,53.5
2022-12-16T08:58:09.150Z,40.4
2022-12-16T08:59:21.255Z,39.9
2022-12-16T09:00:33.497Z,42
2022-12-16T09:01:45.835Z,39.1
2022-12-16T09:02:58.080Z,41.2
2022-12-16T09:04:10.240Z,36.6
2022-12-16T09:05:22.302Z,38.6
2022-12-16T09:06:40.049Z,38.6
2022-12-16T09:07:46.789Z,35.8
2022-12-16T09:09:04.414Z,34.6
2022-12-16T09:10:16.726Z,33.1
2022-12-16T09:11:28.983Z,33.2
2022-12-16T09:12:41.179Z,32.9
2022-12-16T09:13:53.522Z,33.2
2022-12-16T09:15:05.837Z,31.2
2022-12-16T09:16:19.706Z,33
2022-12-16T09:17:30.604Z,32.8
2022-12-16T09:18:42.833Z,31.9
2022-12-16T09:19:55.479Z,30.3
2022-12-16T09:21:07.834Z,30.9
2022-12-16T09:22:19.974Z,30.3
2022-12-16T09:23:32.546Z,30.3
2022-12-16T09:24:44.422Z,30.2
2022-12-16T09:25:56.750Z,31.9
2022-12-16T09:27:09.143Z,30.8
2022-12-16T09:28:21.614Z,31.9
2022-12-16T09:29:33.858Z,30.4
2022-12-16T09:30:46.096Z,32.6
2022-12-16T09:31:58.265Z,32.4
2022-12-16T09:33:10.666Z,32
2022-12-16T09:34:22.929Z,32.2
2022-12-16T09:35:34.927Z,32
2022-12-16T09:36:47.164Z,32.3
2022-12-16T09:37:59.402Z,32.3
2022-12-16T09:39:11.746Z,32.8
2022-12-16T09:40:24.457Z,33.5
2022-12-16T09:41:41.200Z,32.5
2022-12-16T09:42:48.779Z,32.9
2022-12-16T09:44:01.036Z,30.6
2022-12-16T09:45:19.330Z,28.9
2022-12-16T09:46:36.635Z,30.4
2022-12-16T09:47:53.899Z,31.5
2022-12-16T09:49:11.898Z,31.8
2022-12-16T09:50:29.509Z,34.3
2022-12-16T09:51:41.649Z,50.1
2022-12-16T09:52:53.937Z,41.8
2022-12-16T09:54:06.357Z,44.6
2022-12-16T09:55:18.885Z,44.9
2022-12-16T09:56:34.033Z,41.4
2022-12-16T09:57:49.847Z,87
2022-12-16T09:58:59.344Z,59.2
2022-12-16T10:00:14.731Z,76.4
2022-12-16T10:01:26.995Z,70.5
2022-12-16T10:02:39.352Z,57.2
2022-12-16T10:03:51.476Z,120.4
2022-12-16T10:05:03.860Z,65.3
2022-12-16T10:06:16.149Z,80
2022-12-16T10:07:34.148Z,105.5
2022-12-16T10:08:46.385Z,56.9
2022-12-16T10:10:03.661Z,36.3
2022-12-16T10:11:20.981Z,31.5
2022-12-16T10:12:39.228Z,34.7
2022-12-16T10:13:59.527Z,32.1
2022-12-16T10:15:16.932Z,34.7
2022-12-16T10:16:34.277Z,54.4
2022-12-16T10:17:51.544Z,32.2
2022-12-16T10:19:03.831Z,39.2
2022-12-16T10:20:24.085Z,36.6
2022-12-16T10:21:46.488Z,47
2022-12-16T10:23:01.291Z,40.5
2022-12-16T10:24:16.436Z,35.6
2022-12-16T10:25:38.863Z,44.7
2022-12-16T10:26:57.241Z,42.9
2022-12-16T10:28:17.523Z,32.5
2022-12-16T10:29:39.838Z,30.6
2022-12-16T10:30:52.073Z,29.3
2022-12-16T10:32:04.345Z,32.7
2022-12-16T10:33:22.596Z,39.5
2022-12-16T10:34:34.796Z,34.3
2022-12-16T10:35:47.032Z,32.1
2022-12-16T10:36:59.493Z,36
2022-12-16T10:38:12.124Z,49.9
2022-12-16T10:39:33.069Z,36.7
2022-12-16T10:40:45.636Z,34.8
2022-12-16T10:41:57.775Z,37.3
2022-12-16T10:43:09.859Z,34.3
2022-12-16T10:44:22.287Z,37.4
2022-12-16T10:45:45.099Z,33.7
2022-12-16T10:46:57.203Z,32.5
2022-12-16T10:48:09.538Z,28.6
2022-12-16T10:49:21.688Z,29.2
2022-12-16T10:50:33.894Z,33.8
2022-12-16T10:51:46.020Z,33
2022-12-16T10:52:58.327Z,33.6
2022-12-16T10:54:16.235Z,38.9
2022-12-16T10:55:36.944Z,32.3
2022-12-16T10:56:59.429Z,41.4
2022-12-16T10:58:16.691Z,42.1
2022-12-16T10:59:34.023Z,44.5
2022-12-16T11:00:46.268Z,33.1
2022-12-16T11:01:58.519Z,34.5
2022-12-16T11:03:20.995Z,42.2
2022-12-16T11:04:35.627Z,52.5
2022-12-16T11:05:47.869Z,43
2022-12-16T11:07:01.531Z,41.9
2022-12-16T11:08:13.840Z,38.3
2022-12-16T11:09:25.965Z,39.1
2022-12-16T11:10:38.292Z,39.4
2022-12-16T11:11:50.528Z,36.9
2022-12-16T11:13:13.115Z,45.9
2022-12-16T11:14:30.643Z,46
2022-12-16T11:15:42.933Z,41.3
2022-12-16T11:16:55.852Z,39.1
2022-12-16T11:18:13.476Z,32.6
2022-12-16T11:19:25.579Z,30.3
2022-12-16T11:20:37.971Z,31.9
2022-12-16T11:21:50.103Z,31.4
2022-12-16T11:23:02.255Z,32.3
2022-12-16T11:24:22.664Z,214
2022-12-16T11:25:35.358Z,123.7
2022-12-16T11:26:45.487Z,47.3
2022-12-16T11:28:05.408Z,63.8
2022-12-16T11:29:17.511Z,122.2
2022-12-16T11:30:29.780Z,110.7
2022-12-16T11:31:42.130Z,98.9
2022-12-16T11:33:02.411Z,101.3
2022-12-16T11:34:22.766Z,89
2022-12-16T11:35:35.138Z,38.2
2022-12-16T11:36:52.799Z,34.1
2022-12-16T11:38:05.398Z,31
2022-12-16T11:39:22.786Z,42.9
2022-12-16T11:40:36.533Z,52.6
2022-12-16T11:41:48.682Z,37
2022-12-16T11:43:06.482Z,39.6
2022-12-16T11:44:13.190Z,47.5
2022-12-16T11:45:25.304Z,31.3
2022-12-16T11:46:37.488Z,33.9
2022-12-16T11:47:49.895Z,38.6
2022-12-16T11:49:02.008Z,41.5
2022-12-16T11:50:16.848Z,33.9
2022-12-16T11:51:28.930Z,37.1
2022-12-16T11:52:41.097Z,37.5
2022-12-16T11:53:50.778Z,37.4
2022-12-16T11:55:02.938Z,48.8
2022-12-16T11:56:23.418Z,35
2022-12-16T11:57:35.586Z,34
2022-12-16T11:58:50.610Z,31.8
2022-12-16T12:00:02.714Z,34.7
2022-12-16T12:01:15.371Z,32.4
2022-12-16T12:02:27.537Z,31.5
2022-12-16T12:03:50.010Z,32.7
2022-12-16T12:05:02.195Z,31.9
2022-12-16T12:06:14.399Z,32.6
2022-12-16T12:07:26.734Z,34
2022-12-16T12:08:47.310Z,35.3
2022-12-16T12:10:07.770Z,33.9
2022-12-16T12:11:25.040Z,35.9
2022-12-16T12:12:40.226Z,41.3
2022-12-16T12:13:53.032Z,47
2022-12-16T12:15:14.906Z,45.3
2022-12-16T12:16:37.875Z,36.7
2022-12-16T12:17:55.556Z,44.6
2022-12-16T12:19:15.111Z,40.2
2022-12-16T12:20:32.678Z,37.8
2022-12-16T12:21:50.724Z,41
2022-12-16T12:23:05.823Z,41.7
2022-12-16T12:24:17.899Z,39
2022-12-16T12:25:35.234Z,36.5
2022-12-16T12:26:52.606Z,34.4
2022-12-16T12:28:09.850Z,36.1
2022-12-16T12:29:27.170Z,37.6
2022-12-16T12:30:47.838Z,37.9
2022-12-16T12:32:05.857Z,34.3
2022-12-16T12:33:24.290Z,36.9
2022-12-16T12:34:44.053Z,34
2022-12-16T12:36:06.450Z,76.4
2022-12-16T12:37:24.630Z,99.2
2022-12-16T12:38:41.963Z,63.4
2022-12-16T12:40:02.851Z,47.8
2022-12-16T12:41:20.017Z,46.4
2022-12-16T12:42:32.190Z,51.2
2022-12-16T12:43:53.151Z,44.8
2022-12-16T12:45:15.886Z,39.2
2022-12-16T12:46:33.319Z,33.8
2022-12-16T12:47:51.514Z,37.6
2022-12-16T12:49:14.853Z,38.1
2022-12-16T12:50:29.802Z,35.7
2022-12-16T12:51:47.110Z,39.5
2022-12-16T12:53:07.638Z,37.3
2022-12-16T12:54:28.789Z,33.4
2022-12-16T12:55:47.634Z,29.9
2022-12-16T12:56:59.943Z,35.3
2022-12-16T12:58:12.309Z,32.8
2022-12-16T12:59:25.914Z,33.9
2022-12-16T13:00:46.400Z,34.5
2022-12-16T13:01:58.667Z,35.8
2022-12-16T13:03:10.925Z,36.9
2022-12-16T13:04:25.963Z,37.5
2022-12-16T13:05:38.226Z,38.9
2022-12-16T13:06:51.396Z,34.6
2022-12-16T13:08:03.672Z,35.5
2022-12-16T13:09:20.930Z,34.3
2022-12-16T13:10:33.877Z,34.9
2022-12-16T13:11:46.323Z,37.1
2022-12-16T13:13:08.824Z,38
2022-12-16T13:14:20.898Z,37.3
2022-12-16T13:15:36.425Z,34.2
2022-12-16T13:16:49.068Z,36.2
2022-12-16T13:18:01.161Z,35.7
2022-12-16T13:19:13.485Z,33.5
2022-12-16T13:20:33.697Z,31.5
2022-12-16T13:21:45.951Z,31.7
2022-12-16T13:22:58.145Z,34.1
2022-12-16T13:24:10.491Z,32.8
2022-12-16T13:25:24.180Z,33.6
2022-12-16T13:26:39.861Z,33.2
2022-12-16T13:27:52.229Z,32.6
2022-12-16T13:29:05.264Z,36.5
2022-12-16T13:30:28.033Z,39.3
2022-12-16T13:31:40.844Z,30.7
2022-12-16T13:33:00.829Z,31.6
2022-12-16T13:34:23.712Z,32.7
2022-12-16T13:35:35.948Z,31.9
2022-12-16T13:36:58.341Z,30.6
2022-12-16T13:38:10.561Z,31.1
2022-12-16T13:39:24.994Z,31.1
2022-12-16T13:40:37.067Z,33.1
2022-12-16T13:41:57.338Z,36.1
2022-12-16T13:43:09.817Z,33.1
2022-12-16T13:44:32.613Z,32.4
2022-12-16T13:45:44.857Z,31.1
2022-12-16T13:47:00.055Z,31.8
2022-12-16T13:48:12.234Z,34.3
2022-12-16T13:49:29.481Z,39.8
2022-12-16T13:50:49.457Z,44.3
2022-12-16T13:52:01.667Z,49.9
2022-12-16T13:53:13.804Z,45.7
2022-12-16T13:54:26.776Z,50
2022-12-16T13:55:44.617Z,92
2022-12-16T13:56:59.606Z,109
2022-12-16T13:58:11.869Z,130
2022-12-16T13:59:32.191Z,191.4
2022-12-16T14:00:44.392Z,177.4
2022-12-16T14:01:59.291Z,104.3
2022-12-16T14:03:22.144Z,118.5
2022-12-16T14:04:42.575Z,79.6
2022-12-16T14:05:54.733Z,187.7
2022-12-16T14:07:07.305Z,147.7
2022-12-16T14:08:19.544Z,187
2022-12-16T14:09:31.774Z,105.7
2022-12-16T14:10:46.641Z,75.7
2022-12-16T14:12:01.849Z,74.2
2022-12-16T14:13:22.177Z,65.1
2022-12-16T14:14:43.505Z,57.6
2022-12-16T14:15:55.844Z,60.9
2022-12-16T14:17:16.471Z,57.4
2022-12-16T14:18:31.740Z,61.7
2022-12-16T14:19:49.460Z,59.7
2022-12-16T14:21:10.259Z,61.5
2022-12-16T14:22:22.857Z,62.2
2022-12-16T14:23:56.191Z,65.8
2022-12-16T14:24:57.453Z,63.6
2022-12-16T14:26:17.790Z,65.7
2022-12-16T14:27:30.134Z,64.2
2022-12-16T14:28:42.878Z,60.4
2022-12-16T14:30:02.938Z,63.5
2022-12-16T14:31:20.878Z,60.5
2022-12-16T14:32:38.114Z,60.1
2022-12-16T14:33:50.379Z,59.8
2022-12-16T14:35:03.757Z,68.4
2022-12-16T14:36:16.478Z,72.5
2022-12-16T14:37:28.989Z,70.9
2022-12-16T14:38:41.208Z,69.3
2022-12-16T14:39:53.485Z,74
2022-12-16T14:41:05.859Z,73.6
2022-12-16T14:42:18.431Z,70.4
2022-12-16T14:43:30.793Z,63.2
2022-12-16T14:44:42.829Z,63.8
2022-12-16T14:45:55.074Z,61.8
2022-12-16T14:47:07.228Z,59
2022-12-16T14:48:20.058Z,61.4
2022-12-16T14:49:32.588Z,60.5
2022-12-16T14:50:44.887Z,66.5
2022-12-16T14:51:57.061Z,62.8
2022-12-16T14:53:14.494Z,64
2022-12-16T14:54:26.609Z,63.5
2022-12-16T14:55:47.303Z,63.9
2022-12-16T14:56:59.721Z,62.7
2022-12-16T14:58:14.670Z,59.3
2022-12-16T14:59:27.313Z,59.7
2022-12-16T15:00:39.852Z,59.4
2022-12-16T15:01:52.213Z,58.7
2022-12-16T15:03:14.739Z,59
2022-12-16T15:04:32.046Z,64.5
2022-12-16T15:05:44.057Z,60
2022-12-16T15:06:56.204Z,57.7
2022-12-16T15:08:08.581Z,62.9
2022-12-16T15:09:21.112Z,71.6
2022-12-16T15:10:38.425Z,68.8
2022-12-16T15:11:50.692Z,62.1
2022-12-16T15:13:02.880Z,65.6
2022-12-16T15:14:19.196Z,62
2022-12-16T15:15:31.333Z,75.7
2022-12-16T15:16:46.717Z,69.5
2022-12-16T15:17:58.870Z,84.4
2022-12-16T15:19:12.187Z,68.3
2022-12-16T15:20:24.301Z,62.2
2022-12-16T15:21:36.447Z,64
2022-12-16T15:22:48.684Z,83.1
2022-12-16T15:24:00.922Z,73.9
2022-12-16T15:25:13.124Z,78.2
2022-12-16T15:26:28.342Z,67.8
2022-12-16T15:27:40.650Z,78.9
2022-12-16T15:28:58.193Z,68.6
2022-12-16T15:30:08.710Z,68
2022-12-16T15:31:31.611Z,71.5
2022-12-16T15:32:43.737Z,73.7
2022-12-16T15:33:56.011Z,84
2022-12-16T15:35:18.850Z,74
2022-12-16T15:36:36.215Z,67.5
2022-12-16T15:37:48.415Z,71.7
2022-12-16T15:39:01.390Z,75.7
2022-12-16T15:40:13.877Z,72.3
2022-12-16T15:41:29.874Z,94.5
2022-12-16T15:42:42.309Z,94.5
2022-12-16T15:43:57.537Z,94.5
2022-12-16T15:45:06.721Z,94.5
2022-12-16T15:46:19.135Z,110.2
2022-12-16T15:47:31.150Z,82.8
2022-12-16T15:48:44.272Z,73.7
2022-12-16T15:50:00.712Z,73.4
2022-12-16T15:51:08.838Z,116
2022-12-16T15:52:29.085Z,167.9
2022-12-16T15:53:47.738Z,109.2
2022-12-16T15:55:04.821Z,129.7
2022-12-16T15:56:25.073Z,132.5
2022-12-16T15:57:37.229Z,114.1
2022-12-16T15:58:57.518Z,123.7
2022-12-16T16:00:17.605Z,101.3
2022-12-16T16:01:32.958Z,147.9
2022-12-16T16:02:45.272Z,155.8
2022-12-16T16:03:57.453Z,131.4
2022-12-16T16:05:21.045Z,92.1
2022-12-16T16:06:33.772Z,77.1
2022-12-16T16:07:49.104Z,78.1